Time;durP1;ratioP1;P1;durP2;ratioP2;P2;SDS_P1;SDS_P2;PMS_P1;PMS_P2;Temp;Humidity;BMP_temperature;BMP_pressure;BME280_temperature;BME280_humidity;BME280_pressure;Samples;Min_cycle;Max_cycle;Signal;HPM_P1;HPM_P2
2022/10/01 00:00:56;;;;;;;10.05;4.30;;;11.70;99.90;;;;;;5130510;27;20100;-75
2022/10/01 00:03:24;;;;;;;9.85;3.85;;;11.70;99.90;;;;;;5121703;27;20050;-81
2022/10/01 00:06:16;;;;;;;7.13;3.80;;;11.70;99.90;;;;;;5111974;28;20126;-80
2022/10/01 00:08:47;;;;;;;8.85;4.35;;;11.50;99.90;;;;;;5112309;27;20078;-81
2022/10/01 00:11:21;;;;;;;11.25;4.32;;;11.50;99.90;;;;;;5100592;27;20050;-80
2022/10/01 00:13:47;;;;;;;11.55;3.92;;;11.50;99.90;;;;;;5118771;28;20408;-80
2022/10/01 00:16:16;;;;;;;8.05;3.97;;;11.40;99.90;;;;;;5100591;27;20035;-81
2022/10/01 00:18:44;;;;;;;8.32;4.63;;;11.40;99.90;;;;;;5121878;27;20035;-82
2022/10/01 00:21:14;;;;;;;8.55;4.65;;;11.30;99.90;;;;;;5127753;27;20038;-75
2022/10/01 00:23:41;;;;;;;7.47;3.70;;;11.30;99.90;;;;;;5109073;28;20058;-75
2022/10/01 00:26:16;;;;;;;10.25;4.15;;;11.30;99.90;;;;;;5126529;28;20619;-76
2022/10/01 00:28:44;;;;;;;8.63;5.05;;;11.20;99.90;;;;;;5123752;28;20056;-76
2022/10/01 00:31:11;;;;;;;10.75;4.75;;;11.20;99.90;;;;;;5125777;27;20027;-75
2022/10/01 00:33:37;;;;;;;10.70;5.13;;;11.20;99.90;;;;;;5112224;28;20672;-77
2022/10/01 00:36:06;;;;;;;;;;;11.20;99.90;;;;;;5131120;28;20047;-75
2022/10/01 00:38:32;;;;;;;10.02;4.55;;;11.10;99.90;;;;;;5131023;28;20395;-76
2022/10/01 00:40:59;;;;;;;7.85;4.60;;;11.10;99.90;;;;;;5111188;28;20039;-75
2022/10/01 00:43:26;;;;;;;;;;;11.00;99.90;;;;;;5131397;28;20444;-75
2022/10/01 00:45:53;;;;;;;;;;;11.00;99.90;;;;;;5130464;28;19920;-75
2022/10/01 00:48:20;;;;;;;9.23;4.20;;;11.00;99.90;;;;;;5129520;27;19919;-76
2022/10/01 00:50:48;;;;;;;9.38;5.15;;;11.00;99.90;;;;;;5111745;28;20062;-76
2022/10/01 00:53:16;;;;;;;9.65;4.35;;;11.00;99.90;;;;;;5131004;28;20051;-75
2022/10/01 00:55:53;;;;;;;10.02;4.15;;;11.00;99.90;;;;;;5091961;28;20047;-76
2022/10/01 00:58:19;;;;;;;7.85;3.92;;;10.90;99.90;;;;;;5127204;28;21557;-75
2022/10/01 01:00:45;;;;;;;8.75;4.85;;;10.90;99.90;;;;;;5130003;28;20039;-75
2022/10/01 01:03:11;;;;;;;9.52;4.25;;;10.90;99.90;;;;;;5099954;28;20388;-75
2022/10/01 01:05:38;;;;;;;8.60;4.60;;;10.90;99.90;;;;;;5129729;28;20448;-76
2022/10/01 01:08:04;;;;;;;8.90;5.15;;;11.00;99.90;;;;;;5130480;28;20046;-76
2022/10/01 01:10:40;;;;;;;;;;;10.90;99.90;;;;;;5131269;28;20043;-76
2022/10/01 01:13:17;;;;;;;8.75;4.40;;;10.90;99.90;;;;;;5130596;28;19919;-75
2022/10/01 01:15:59;;;;;;;9.10;4.15;;;10.90;99.90;;;;;;5115705;27;20043;-77
2022/10/01 01:18:34;;;;;;;11.35;5.15;;;10.90;99.90;;;;;;5129992;28;20078;-76
2022/10/01 01:21:19;;;;;;;8.15;4.53;;;10.80;99.90;;;;;;5129561;28;20035;-76
2022/10/01 01:23:57;;;;;;;11.35;4.75;;;10.80;99.90;;;;;;5111933;28;20051;-76
2022/10/01 01:26:41;;;;;;;14.70;5.40;;;10.80;99.90;;;;;;5130497;28;20043;-76
2022/10/01 01:29:21;;;;;;;10.63;4.82;;;10.80;99.90;;;;;;5106418;28;20040;-76
2022/10/01 01:31:47;;;;;;;11.00;5.60;;;10.80;99.90;;;;;;5112266;28;20032;-76
2022/10/01 01:34:22;;;;;;;10.43;5.47;;;10.80;99.90;;;;;;5113946;27;20135;-76
2022/10/01 01:36:58;;;;;;;10.35;5.40;;;10.80;99.90;;;;;;5112789;28;20474;-76
2022/10/01 01:39:28;;;;;;;8.15;4.13;;;10.80;99.90;;;;;;5117575;27;20047;-76
2022/10/01 01:41:59;;;;;;;9.32;4.90;;;10.80;99.90;;;;;;5098139;27;20388;-77
2022/10/01 01:44:31;;;;;;;10.02;5.30;;;10.70;99.90;;;;;;5116302;27;20103;-76
2022/10/01 01:46:58;;;;;;;10.88;4.70;;;10.70;99.90;;;;;;5104028;28;20485;-77
2022/10/01 01:49:24;;;;;;;9.60;4.95;;;10.70;99.90;;;;;;5113169;28;20059;-77
2022/10/01 01:51:53;;;;;;;9.43;4.90;;;10.70;99.90;;;;;;5112667;28;20040;-78
2022/10/01 01:54:19;;;;;;;8.68;5.22;;;10.70;99.90;;;;;;5115177;27;20481;-77
2022/10/01 01:56:45;;;;;;;10.98;5.40;;;10.70;99.90;;;;;;5111691;28;20044;-77
2022/10/01 01:59:12;;;;;;;11.23;5.75;;;10.70;99.90;;;;;;5095269;28;20054;-77
2022/10/01 02:01:40;;;;;;;11.38;4.88;;;10.70;99.90;;;;;;5098787;27;20039;-77
2022/10/01 02:04:36;;;;;;;13.70;4.70;;;10.70;99.90;;;;;;5114490;27;20115;-77
2022/10/01 02:07:31;;;;;;;8.98;4.43;;;10.70;99.90;;;;;;5093861;28;20079;-78
2022/10/01 02:10:11;;;;;;;9.32;4.78;;;10.70;99.90;;;;;;5095942;27;20051;-77
2022/10/01 02:12:50;;;;;;;8.40;4.22;;;10.70;99.90;;;;;;5095059;28;20056;-79
2022/10/01 02:15:50;;;;;;;11.02;5.28;;;10.70;99.90;;;;;;5095218;28;20081;-78
2022/10/01 02:18:43;;;;;;;8.27;4.75;;;10.70;99.90;;;;;;5093980;28;20149;-78
2022/10/01 02:21:26;;;;;;;8.82;4.57;;;10.70;99.90;;;;;;5094126;28;20120;-78
2022/10/01 02:24:07;;;;;;;10.32;4.80;;;10.70;99.90;;;;;;5094327;28;20478;-77
2022/10/01 02:26:36;;;;;;;9.63;5.05;;;10.70;99.90;;;;;;5094654;28;20384;-78
2022/10/01 02:29:07;;;;;;;9.85;5.13;;;10.70;99.90;;;;;;5094323;28;20044;-78
2022/10/01 02:31:34;;;;;;;11.48;5.20;;;10.70;99.90;;;;;;5078781;28;20036;-78
2022/10/01 02:34:01;;;;;;;9.90;5.15;;;10.70;99.90;;;;;;5093717;28;20365;-79
2022/10/01 02:36:29;;;;;;;8.48;4.38;;;10.70;99.90;;;;;;5090626;28;20063;-79
2022/10/01 02:38:58;;;;;;;11.07;4.40;;;10.70;99.90;;;;;;5090818;28;20052;-79
2022/10/01 02:41:27;;;;;;;7.38;4.15;;;10.70;99.90;;;;;;5091015;28;20051;-78
2022/10/01 02:44:00;;;;;;;9.35;4.80;;;10.70;99.90;;;;;;5090611;28;20055;-78
2022/10/01 02:46:38;;;;;;;7.95;3.65;;;10.70;99.90;;;;;;5090072;28;20040;-78
2022/10/01 02:49:04;;;;;;;8.82;4.28;;;10.70;99.90;;;;;;5090086;28;20051;-78
2022/10/01 02:51:44;;;;;;;7.63;4.05;;;10.70;99.90;;;;;;5093913;28;20460;-78
2022/10/01 02:54:21;;;;;;;8.75;4.13;;;10.70;99.90;;;;;;5110810;28;20111;-78
2022/10/01 02:59:31;;;;;;;8.32;4.07;;;10.70;99.90;;;;;;5112447;27;20139;-79
2022/10/01 03:01:57;;;;;;;7.63;4.07;;;10.80;99.90;;;;;;5109065;28;20097;-79
2022/10/01 03:04:23;;;;;;;6.30;3.78;;;10.80;99.90;;;;;;5110730;28;20100;-79
2022/10/01 03:06:48;;;;;;;6.90;3.88;;;10.80;99.90;;;;;;5110609;28;20122;-79
2022/10/01 03:09:14;;;;;;;8.05;4.40;;;10.80;99.90;;;;;;5107060;28;20050;-79
2022/10/01 03:11:41;;;;;;;6.88;3.50;;;10.90;99.90;;;;;;5094698;28;20054;-79
2022/10/01 03:14:07;;;;;;;7.53;3.65;;;10.90;99.90;;;;;;5109811;28;20491;-79
2022/10/01 03:16:33;;;;;;;6.43;3.53;;;10.90;99.90;;;;;;5105599;28;20040;-80
2022/10/01 03:18:59;;;;;;;7.88;3.45;;;11.00;99.90;;;;;;5089449;28;20039;-80
2022/10/01 03:21:25;;;;;;;7.63;3.45;;;10.90;99.90;;;;;;5089950;28;20036;-81
2022/10/01 03:23:50;;;;;;;8.27;3.60;;;10.90;99.90;;;;;;5091665;28;20370;-80
2022/10/01 03:26:16;;;;;;;7.05;3.80;;;11.00;99.90;;;;;;5110248;28;20048;-81
2022/10/01 03:28:41;;;;;;;5.88;3.10;;;11.00;99.90;;;;;;5110839;28;20047;-81
2022/10/01 03:31:09;;;;;;;6.68;3.38;;;11.00;99.90;;;;;;5109972;28;20052;-81
2022/10/01 03:33:35;;;;;;;4.70;2.78;;;11.00;99.90;;;;;;5111353;28;20043;-81
2022/10/01 03:36:05;;;;;;;5.88;2.70;;;11.00;99.90;;;;;;5109211;28;20050;-82
2022/10/01 03:38:30;;;;;;;4.78;2.70;;;11.00;99.90;;;;;;5110757;28;20056;-81
2022/10/01 03:40:56;;;;;;;6.00;3.28;;;11.00;99.90;;;;;;5100555;28;20044;-80
2022/10/01 03:43:22;;;;;;;5.30;2.83;;;10.90;99.90;;;;;;5107998;28;20044;-80
2022/10/01 03:45:48;;;;;;;7.18;2.75;;;10.90;99.90;;;;;;5106109;28;20039;-80
2022/10/01 03:48:13;;;;;;;4.35;2.33;;;11.00;99.90;;;;;;5104840;28;20051;-80
2022/10/01 03:50:39;;;;;;;5.75;2.78;;;10.90;99.90;;;;;;5109661;28;20096;-80
2022/10/01 03:53:05;;;;;;;5.30;2.53;;;10.90;99.90;;;;;;5092925;28;20039;-79
2022/10/01 03:55:31;;;;;;;6.32;2.70;;;10.90;99.90;;;;;;5091254;28;20060;-79
2022/10/01 03:57:57;;;;;;;5.72;2.60;;;10.90;99.90;;;;;;5089206;28;20036;-79
2022/10/01 04:00:24;;;;;;;6.45;2.60;;;10.90;99.90;;;;;;5078478;28;20495;-79
2022/10/01 04:02:49;;;;;;;5.60;2.90;;;10.80;99.90;;;;;;5088760;28;20472;-79
2022/10/01 04:05:15;;;;;;;6.10;2.90;;;10.80;99.90;;;;;;5088524;28;20051;-79
2022/10/01 04:07:41;;;;;;;6.18;2.97;;;10.80;99.90;;;;;;5090954;28;20040;-80
2022/10/01 04:10:07;;;;;;;4.65;2.80;;;10.80;99.90;;;;;;5090259;28;20036;-79
2022/10/01 04:12:33;;;;;;;;;;;10.80;99.90;;;;;;5094276;28;20079;-79
2022/10/01 04:14:59;;;;;;;3.95;2.55;;;10.80;99.90;;;;;;5109214;28;19970;-80
2022/10/01 04:17:25;;;;;;;4.78;2.50;;;10.80;99.90;;;;;;5089926;28;20059;-80
2022/10/01 04:19:51;;;;;;;5.55;2.47;;;10.90;99.90;;;;;;5089981;28;20497;-79
2022/10/01 04:22:16;;;;;;;4.47;2.50;;;10.80;99.90;;;;;;5089999;28;20047;-79
2022/10/01 04:24:42;;;;;;;3.45;1.90;;;10.90;99.90;;;;;;5091130;28;20043;-79
2022/10/01 04:27:08;;;;;;;5.25;2.83;;;10.90;99.90;;;;;;5088755;28;20489;-80
2022/10/01 04:29:34;;;;;;;4.18;2.55;;;10.90;99.90;;;;;;5090966;28;20052;-79
2022/10/01 04:32:02;;;;;;;5.88;3.15;;;10.90;99.90;;;;;;5087911;28;20048;-80
2022/10/01 04:35:03;;;;;;;3.65;2.30;;;10.90;99.90;;;;;;5092737;28;20052;-80
2022/10/01 04:37:21;;;;;;;4.00;2.05;;;11.00;99.90;;;;;;5106911;28;20253;-80
2022/10/01 04:39:47;;;;;;;4.72;2.60;;;11.00;99.90;;;;;;5110966;28;20093;-79
2022/10/01 04:42:13;;;;;;;4.45;2.45;;;11.00;99.90;;;;;;5091677;28;20481;-79
2022/10/01 04:44:39;;;;;;;4.90;2.60;;;11.00;99.90;;;;;;5092792;28;20081;-80
2022/10/01 04:47:05;;;;;;;;;;;11.00;99.90;;;;;;5123726;28;20043;-79
2022/10/01 04:49:32;;;;;;;4.10;1.98;;;11.00;99.90;;;;;;5130310;28;19926;-80
2022/10/01 04:51:58;;;;;;;4.13;2.58;;;11.10;99.90;;;;;;5123212;28;20209;-80
2022/10/01 04:54:24;;;;;;;4.32;2.03;;;11.10;99.90;;;;;;5110616;28;20051;-78
2022/10/01 04:56:50;;;;;;;4.07;2.17;;;11.10;99.90;;;;;;5092552;28;20040;-78
2022/10/01 04:59:16;;;;;;;3.63;2.28;;;11.10;99.90;;;;;;5110049;28;20536;-78
2022/10/01 05:01:41;;;;;;;4.05;2.33;;;11.10;99.90;;;;;;5109265;28;20043;-78
2022/10/01 05:04:07;;;;;;;4.10;2.28;;;11.10;99.90;;;;;;5107538;27;20043;-79
2022/10/01 05:06:34;;;;;;;3.50;2.20;;;11.10;99.90;;;;;;5134763;27;20046;-78
2022/10/01 05:08:59;;;;;;;;;;;11.10;99.90;;;;;;5135673;27;20042;-79
2022/10/01 05:11:25;;;;;;;3.05;1.77;;;11.10;99.90;;;;;;5130663;27;19916;-78
2022/10/01 05:13:51;;;;;;;2.55;1.88;;;11.10;99.90;;;;;;5096432;28;20039;-78
2022/10/01 05:16:16;;;;;;;3.67;2.00;;;11.20;99.90;;;;;;5112592;28;20100;-78
2022/10/01 05:18:42;;;;;;;4.03;2.15;;;11.20;99.90;;;;;;5113875;28;20044;-78
2022/10/01 05:21:11;;;;;;;3.58;2.35;;;11.20;99.90;;;;;;5113096;28;20047;-78
2022/10/01 05:23:37;;;;;;;3.60;2.00;;;11.20;99.90;;;;;;5096064;28;20489;-79
2022/10/01 05:26:04;;;;;;;4.07;2.20;;;11.20;99.90;;;;;;5095603;28;20597;-80
2022/10/01 05:28:31;;;;;;;4.28;2.40;;;11.20;99.90;;;;;;5113939;28;20525;-79
2022/10/01 05:31:01;;;;;;;4.47;2.45;;;11.20;99.90;;;;;;5095496;28;20044;-80
2022/10/01 05:33:28;;;;;;;4.10;2.58;;;11.30;99.90;;;;;;5113313;28;20124;-79
2022/10/01 05:35:55;;;;;;;5.78;2.35;;;11.30;99.90;;;;;;5113383;28;20040;-79
2022/10/01 05:38:20;;;;;;;3.30;2.20;;;11.30;99.90;;;;;;5113356;28;20548;-78
2022/10/01 05:40:46;;;;;;;3.45;2.05;;;11.40;99.90;;;;;;5095860;28;20086;-78
2022/10/01 05:43:12;;;;;;;3.83;2.40;;;11.40;99.90;;;;;;5127680;27;20089;-79
2022/10/01 05:45:38;;;;;;;3.67;2.30;;;11.40;99.90;;;;;;5128239;27;20156;-79
2022/10/01 05:48:06;;;;;;;3.58;2.17;;;11.40;99.90;;;;;;5113335;27;20143;-81
2022/10/01 05:50:41;;;;;;;4.18;2.47;;;11.40;99.90;;;;;;5127209;27;20061;-79
2022/10/01 05:53:08;;;;;;;4.22;2.50;;;11.50;99.90;;;;;;5113713;27;20043;-80
2022/10/01 05:55:34;;;;;;;4.00;2.30;;;11.50;99.90;;;;;;5133222;27;20561;-80
2022/10/01 05:58:02;;;;;;;6.00;2.58;;;11.40;99.90;;;;;;5091242;28;20044;-78
2022/10/01 06:00:30;;;;;;;3.95;2.63;;;11.50;99.90;;;;;;5112728;28;20655;-79
2022/10/01 06:02:56;;;;;;;4.78;2.70;;;11.60;99.90;;;;;;5112320;28;20071;-79
2022/10/01 06:05:22;;;;;;;3.55;2.30;;;11.60;99.90;;;;;;5118912;27;20549;-78
2022/10/01 06:07:49;;;;;;;3.92;2.47;;;11.60;99.90;;;;;;5106776;27;20039;-79
2022/10/01 06:10:15;;;;;;;3.70;2.67;;;11.70;99.90;;;;;;5095526;27;20059;-78
2022/10/01 06:12:42;;;;;;;4.20;2.60;;;11.60;99.90;;;;;;5113020;28;20123;-79
2022/10/01 06:15:09;;;;;;;6.05;2.78;;;11.70;99.90;;;;;;5112640;28;20536;-80
2022/10/01 06:17:34;;;;;;;4.53;2.70;;;11.80;99.90;;;;;;5095114;28;20044;-79
2022/10/01 06:20:00;;;;;;;5.70;3.17;;;11.80;99.90;;;;;;5112213;28;20044;-79
2022/10/01 06:22:26;;;;;;;4.82;2.80;;;11.80;99.90;;;;;;5112341;28;20519;-79
2022/10/01 06:24:51;;;;;;;6.38;3.05;;;11.90;99.90;;;;;;5113318;28;20715;-79
2022/10/01 06:27:17;;;;;;;6.07;3.40;;;11.80;99.90;;;;;;5112388;28;20055;-79
2022/10/01 06:29:43;;;;;;;5.57;3.13;;;11.90;99.90;;;;;;5094950;28;20116;-79
2022/10/01 06:32:12;;;;;;;4.60;2.78;;;11.90;99.90;;;;;;5111087;27;20039;-80
2022/10/01 06:34:38;;;;;;;5.03;2.97;;;11.90;99.90;;;;;;5128286;27;20137;-79
2022/10/01 06:37:04;;;;;;;7.07;3.80;;;11.90;99.90;;;;;;5116466;27;20092;-79
2022/10/01 06:39:29;;;;;;;7.13;3.60;;;12.00;99.90;;;;;;5096203;27;20032;-82
2022/10/01 06:41:55;;;;;;;7.63;3.72;;;12.00;99.90;;;;;;5134881;27;20075;-82
2022/10/01 06:44:21;;;;;;;5.75;3.40;;;12.00;99.90;;;;;;5134600;27;20039;-75
2022/10/01 06:46:47;;;;;;;5.88;3.58;;;12.00;99.90;;;;;;5131450;27;20470;-80
2022/10/01 06:49:12;;;;;;;6.43;3.55;;;12.00;99.90;;;;;;5111746;27;20039;-77
2022/10/01 06:54:24;;;;;;;7.40;3.50;;;12.10;99.90;;;;;;5132538;27;20490;-78
2022/10/01 06:56:50;;;;;;;6.38;3.97;;;12.10;99.90;;;;;;5132825;27;20054;-77
2022/10/01 06:59:16;;;;;;;6.13;3.65;;;12.20;99.90;;;;;;5113846;27;20035;-79
2022/10/01 07:01:41;;;;;;;7.00;3.90;;;12.20;99.90;;;;;;5132679;27;20046;-80
2022/10/01 07:04:07;;;;;;;8.60;4.18;;;12.30;99.90;;;;;;5132381;27;20057;-79
2022/10/01 07:06:33;;;;;;;6.60;3.65;;;12.30;99.90;;;;;;5131681;27;20115;-80
2022/10/01 07:08:59;;;;;;;8.20;4.18;;;12.30;99.90;;;;;;5120127;27;20050;-79
2022/10/01 07:11:25;;;;;;;9.13;4.43;;;12.40;99.90;;;;;;5111224;28;20051;-80
2022/10/01 07:13:51;;;;;;;9.48;4.75;;;12.40;99.90;;;;;;5112138;28;20126;-80
2022/10/01 07:16:16;;;;;;;10.23;4.05;;;12.50;99.90;;;;;;5110146;28;20210;-80
2022/10/01 07:18:42;;;;;;;8.10;4.30;;;12.50;99.90;;;;;;5093568;28;20051;-80
2022/10/01 07:21:08;;;;;;;8.57;4.25;;;12.60;99.90;;;;;;5111564;28;20043;-79
2022/10/01 07:23:33;;;;;;;7.15;4.50;;;12.60;99.90;;;;;;5111408;28;20070;-80
2022/10/01 07:25:59;;;;;;;10.18;4.90;;;12.60;99.90;;;;;;5123483;27;20047;-80
2022/10/01 07:28:26;;;;;;;6.57;4.22;;;12.60;99.90;;;;;;5131726;27;20388;-80
2022/10/01 07:31:10;;;;;;;11.20;4.68;;;12.70;99.90;;;;;;5100849;28;20434;-80
2022/10/01 07:33:40;;;;;;;10.30;3.90;;;12.70;99.90;;;;;;5098075;28;20039;-80
2022/10/01 07:36:08;;;;;;;7.00;4.50;;;12.80;99.90;;;;;;5128770;27;20051;-79
2022/10/01 07:38:34;;;;;;;9.25;4.07;;;12.80;99.90;;;;;;5131565;27;20051;-80
2022/10/01 07:41:01;;;;;;;8.32;3.72;;;12.90;99.90;;;;;;5111899;27;20130;-80
2022/10/01 07:43:28;;;;;;;9.02;4.75;;;13.00;99.90;;;;;;5079357;27;20039;-80
2022/10/01 07:45:56;;;;;;;10.63;4.63;;;13.10;99.90;;;;;;5112114;27;20046;-80
2022/10/01 07:48:23;;;;;;;12.23;5.00;;;13.20;99.90;;;;;;5106924;28;20039;-79
2022/10/01 07:50:49;;;;;;;12.60;4.55;;;13.30;99.90;;;;;;5109227;27;20377;-64
2022/10/01 07:53:16;;;;;;;7.07;4.22;;;13.30;99.90;;;;;;5124707;27;20039;-64
2022/10/01 07:55:41;;;;;;;;;;;13.40;99.90;;;;;;5120004;27;20042;-67
2022/10/01 07:58:08;;;;;;;8.57;4.55;;;13.50;99.90;;;;;;5123775;27;20022;-63
2022/10/01 08:00:34;;;;;;;11.45;4.32;;;13.50;99.90;;;;;;5117197;27;20825;-62
2022/10/01 08:03:00;;;;;;;;;;;13.60;99.90;;;;;;5118739;27;20035;-63
2022/10/01 08:05:29;;;;;;;9.25;4.10;;;13.60;99.90;;;;;;5126827;27;19926;-78
2022/10/01 08:08:07;;;;;;;8.48;4.00;;;13.60;99.90;;;;;;5125043;27;20031;-77
2022/10/01 08:10:35;;;;;;;5.85;3.80;;;13.70;99.90;;;;;;5110476;27;20031;-74
2022/10/01 08:13:13;;;;;;;9.45;3.70;;;13.70;99.90;;;;;;5140222;27;20046;-79
2022/10/01 08:15:40;;;;;;;8.20;4.10;;;13.70;99.90;;;;;;5112682;27;20575;-82
2022/10/01 08:18:06;;;;;;;10.48;3.45;;;13.80;99.90;;;;;;5105053;27;20038;-81
2022/10/01 08:20:32;;;;;;;8.88;3.90;;;13.80;99.90;;;;;;5118778;27;20050;-81
2022/10/01 08:23:02;;;;;;;6.20;3.25;;;13.90;99.90;;;;;;5140570;27;20034;-81
2022/10/01 08:25:28;;;;;;;7.78;3.35;;;13.90;99.90;;;;;;5118892;27;20035;-81
2022/10/01 08:27:54;;;;;;;8.57;3.35;;;14.00;99.90;;;;;;5135829;27;20062;-81
2022/10/01 08:30:20;;;;;;;5.47;2.90;;;14.20;99.90;;;;;;5121450;27;20523;-81
2022/10/01 08:32:45;;;;;;;8.93;3.38;;;14.20;99.90;;;;;;5114829;27;20653;-81
2022/10/01 08:35:11;;;;;;;6.85;3.10;;;14.30;99.90;;;;;;5111696;27;20391;-80
2022/10/01 08:37:37;;;;;;;9.80;3.65;;;14.40;99.90;;;;;;5111492;28;20150;-81
2022/10/01 08:40:03;;;;;;;10.38;3.22;;;14.40;99.90;;;;;;5089315;28;20091;-80
2022/10/01 08:42:46;;;;;;;7.07;3.17;;;14.40;99.90;;;;;;5073054;27;20071;-77
2022/10/01 08:45:20;;;;;;;10.00;3.60;;;14.40;99.90;;;;;;5139448;27;20543;-81
2022/10/01 08:47:56;;;;;;;11.82;3.42;;;14.40;99.90;;;;;;5112211;27;20491;-81
2022/10/01 08:50:43;;;;;;;7.07;3.15;;;14.50;99.90;;;;;;5102752;27;20047;-81
2022/10/01 08:53:21;;;;;;;8.63;3.33;;;14.60;99.90;;;;;;5120744;27;20097;-80
2022/10/01 08:55:49;;;;;;;8.50;3.30;;;14.60;99.90;;;;;;5103883;27;20069;-78
2022/10/01 08:58:28;;;;;;;7.43;2.70;;;14.70;99.90;;;;;;5135105;27;20043;-77
2022/10/01 09:00:54;;;;;;;8.02;2.63;;;14.80;99.90;;;;;;5115858;27;20488;-80
2022/10/01 09:03:19;;;;;;;6.97;2.33;;;14.90;99.90;;;;;;5106032;27;20047;-78
2022/10/01 09:06:02;;;;;;;11.40;3.70;;;15.00;99.90;;;;;;5098618;27;20070;-81
2022/10/01 09:08:58;;;;;;;9.63;2.30;;;15.20;99.90;;;;;;5116027;27;20619;-80
2022/10/01 09:11:31;;;;;;;6.78;1.75;;;15.40;99.90;;;;;;5116220;27;20043;-81
2022/10/01 09:14:07;;;;;;;10.75;2.22;;;15.50;99.90;;;;;;5116893;27;20042;-80
2022/10/01 09:16:51;;;;;;;9.20;2.10;;;15.50;99.90;;;;;;5114642;27;20074;-81
2022/10/01 09:19:41;;;;;;;4.03;1.55;;;15.50;99.90;;;;;;5115705;27;20108;-80
2022/10/01 09:22:24;;;;;;;7.63;1.85;;;15.60;99.90;;;;;;5106425;28;20051;-80
2022/10/01 09:25:20;;;;;;;10.43;2.42;;;15.70;99.90;;;;;;5114325;28;20529;-79
2022/10/01 09:27:46;;;;;;;4.82;2.03;;;15.70;99.90;;;;;;5094392;28;20057;-79
2022/10/01 09:30:12;;;;;;;;;;;15.70;99.90;;;;;;5114569;28;20040;-77
2022/10/01 09:32:54;;;;;;;9.18;1.77;;;15.60;99.90;;;;;;5102163;27;19922;-79
2022/10/01 09:35:47;;;;;;;5.50;1.40;;;15.50;99.90;;;;;;5133074;27;20046;-78
2022/10/01 09:38:41;;;;;;;5.72;1.20;;;15.40;99.90;;;;;;5115425;28;20043;-79
2022/10/01 09:41:09;;;;;;;5.95;1.40;;;15.40;99.90;;;;;;5110609;28;20040;-79
2022/10/01 09:43:40;;;;;;;8.57;1.65;;;15.40;99.90;;;;;;5094014;28;20082;-79
2022/10/01 09:46:12;;;;;;;3.03;1.20;;;15.40;99.90;;;;;;5111057;28;20054;-77
2022/10/01 09:48:55;;;;;;;4.80;1.42;;;15.40;99.90;;;;;;5130927;27;20095;-75
2022/10/01 09:51:47;;;;;;;7.15;1.70;;;15.40;99.90;;;;;;5128474;27;20039;-79
2022/10/01 09:54:45;;;;;;;3.78;1.58;;;15.40;99.90;;;;;;5102032;27;20125;-78
2022/10/01 09:57:11;;;;;;;3.75;1.08;;;15.30;99.90;;;;;;5054771;28;20496;-79
2022/10/01 09:59:44;;;;;;;5.82;1.13;;;15.30;99.90;;;;;;5119275;27;20039;-79
2022/10/01 10:02:21;;;;;;;8.38;2.03;;;15.40;99.90;;;;;;5110321;27;20046;-80
2022/10/01 10:04:57;;;;;;;6.75;1.50;;;15.50;99.90;;;;;;5140731;27;20066;-80
2022/10/01 10:07:23;;;;;;;3.60;1.25;;;15.60;99.90;;;;;;5124304;27;20047;-79
2022/10/01 10:09:50;;;;;;;7.93;1.17;;;15.90;99.90;;;;;;5125853;27;20031;-80
2022/10/01 10:12:28;;;;;;;3.92;1.13;;;16.00;99.90;;;;;;5129482;27;20103;-79
2022/10/01 10:14:57;;;;;;;3.92;1.10;;;16.20;99.90;;;;;;5148016;27;20165;-81
2022/10/01 10:17:24;;;;;;;3.28;0.82;;;16.20;99.90;;;;;;5126490;27;20047;-77
2022/10/01 10:19:51;;;;;;;5.22;1.42;;;16.40;99.90;;;;;;5131174;27;20049;-79
2022/10/01 10:22:25;;;;;;;2.53;0.82;;;16.60;99.90;;;;;;5132180;27;20046;-80
2022/10/01 10:24:52;;;;;;;6.40;1.10;;;16.70;99.90;;;;;;5149790;27;20042;-79
2022/10/01 10:27:27;;;;;;;3.22;1.52;;;16.80;99.90;;;;;;5103124;27;20050;-79
2022/10/01 10:30:14;;;;;;;2.45;0.80;;;16.90;99.90;;;;;;5121519;27;20057;-79
2022/10/01 10:32:41;;;;;;;;;;;17.00;99.90;;;;;;5146670;27;20395;-80
2022/10/01 10:35:17;;;;;;;4.28;0.93;;;17.10;99.90;;;;;;5088190;27;1149281;-80
2022/10/01 10:37:54;;;;;;;6.50;1.02;;;17.20;99.90;;;;;;5121051;27;20114;-81
2022/10/01 10:40:40;;;;;;;3.92;0.93;;;17.30;99.90;;;;;;5146757;27;20079;-80
2022/10/01 10:43:16;;;;;;;7.25;1.00;;;17.50;99.90;;;;;;5149061;27;20554;-80
2022/10/01 10:45:45;;;;;;;9.30;1.20;;;17.40;99.90;;;;;;5130644;27;20514;-79
2022/10/01 10:48:15;;;;;;;6.18;1.10;;;17.20;99.90;;;;;;5103274;27;20518;-77
2022/10/01 10:50:43;;;;;;;8.25;1.30;;;16.90;99.90;;;;;;5116638;27;20099;-76
2022/10/01 10:53:23;;;;;;;5.90;1.15;;;16.50;99.90;;;;;;5124294;27;20460;-78
2022/10/01 10:56:03;;;;;;;8.43;1.73;;;15.90;99.90;;;;;;5128200;27;20078;-79
2022/10/01 10:58:32;;;;;;;8.02;1.77;;;15.50;99.90;;;;;;5150608;27;20042;-78
2022/10/01 11:01:12;;;;;;;6.18;1.50;;;15.10;99.90;;;;;;5139448;27;20038;-80
2022/10/01 11:03:52;;;;;;;7.07;1.88;;;14.80;99.90;;;;;;5146496;27;20038;-76
2022/10/01 11:06:19;;;;;;;6.03;1.58;;;14.60;99.90;;;;;;5148261;27;20034;-76
2022/10/01 11:08:55;;;;;;;3.30;1.45;;;14.40;99.90;;;;;;5114918;27;20090;-76
2022/10/01 11:11:36;;;;;;;7.43;1.48;;;14.20;99.90;;;;;;5113887;27;20147;-76
2022/10/01 11:14:11;;;;;;;4.65;1.13;;;14.20;99.90;;;;;;5118334;27;20494;-76
2022/10/01 11:17:05;;;;;;;3.50;1.10;;;14.10;99.90;;;;;;5146449;27;20031;-78
2022/10/01 11:19:40;;;;;;;2.33;1.00;;;14.00;99.90;;;;;;5131359;27;20046;-78
2022/10/01 11:22:47;;;;;;;4.75;0.98;;;13.70;99.90;;;;;;5130906;27;20047;-81
2022/10/01 11:25:35;;;;;;;1.23;0.83;;;13.40;99.90;;;;;;5114312;27;20102;-81
2022/10/01 11:28:26;;;;;;;2.67;0.98;;;13.10;99.90;;;;;;5109760;27;20130;-80
2022/10/01 11:31:23;;;;;;;2.35;0.90;;;13.00;99.90;;;;;;5104595;27;20099;-79
2022/10/01 11:34:12;;;;;;;4.53;1.52;;;13.10;99.90;;;;;;5139698;27;20071;-80
2022/10/01 11:36:48;;;;;;;4.38;1.27;;;13.30;99.90;;;;;;5118138;27;20087;-77
2022/10/01 11:39:17;;;;;;;6.30;1.77;;;13.50;99.90;;;;;;5118298;27;20043;-77
2022/10/01 11:42:13;;;;;;;4.78;1.23;;;13.80;99.90;;;;;;5130738;27;20441;-75
2022/10/01 11:44:45;;;;;;;2.90;0.90;;;13.90;99.90;;;;;;5117870;27;20043;-80
2022/10/01 11:47:19;;;;;;;3.35;0.80;;;13.90;99.90;;;;;;5112094;27;20035;-78
2022/10/01 11:49:58;;;;;;;1.67;0.70;;;13.80;99.90;;;;;;5130507;27;20035;-77
2022/10/01 11:52:41;;;;;;;3.30;0.73;;;13.70;99.90;;;;;;5131788;27;20039;-78
2022/10/01 11:58:50;;;;;;;3.67;0.90;;;13.70;99.90;;;;;;5146546;27;20130;-79
2022/10/01 12:01:44;;;;;;;1.00;0.70;;;13.80;99.90;;;;;;5120166;27;20051;-79
2022/10/01 12:04:31;;;;;;;3.00;0.88;;;14.10;99.90;;;;;;5132347;27;20581;-79
2022/10/01 12:07:04;;;;;;;;;;;14.20;99.90;;;;;;5130781;27;20337;-80
2022/10/01 12:09:54;;;;;;;1.75;0.90;;;14.30;99.90;;;;;;5131403;27;19919;-80
2022/10/01 12:12:26;;;;;;;5.45;1.73;;;14.60;99.90;;;;;;5107407;28;20048;-81
2022/10/01 12:15:15;;;;;;;7.68;1.80;;;15.20;99.90;;;;;;5110297;28;20047;-76
2022/10/01 12:17:49;;;;;;;3.65;1.00;;;15.90;99.90;;;;;;5110628;28;20055;-76
2022/10/01 12:20:28;;;;;;;7.63;1.30;;;16.50;99.90;;;;;;5092294;28;20093;-76
2022/10/01 12:22:56;;;;;;;6.63;1.00;;;17.00;99.90;;;;;;5092524;28;20095;-76
2022/10/01 12:25:30;;;;;;;4.80;1.83;;;17.50;99.90;;;;;;5113092;27;20579;-77
2022/10/01 12:28:11;;;;;;;5.97;1.05;;;17.90;99.90;;;;;;5136720;27;20065;-78
2022/10/01 12:30:57;;;;;;;4.85;1.50;;;18.30;99.90;;;;;;5112351;28;20349;-78
2022/10/01 12:33:33;;;;;;;4.43;1.13;;;18.60;99.90;;;;;;5111261;27;20042;-81
2022/10/01 12:36:17;;;;;;;4.75;1.45;;;18.90;99.90;;;;;;5112276;27;20073;-80
2022/10/01 12:39:04;;;;;;;7.22;1.63;;;18.70;99.90;;;;;;5128970;28;20140;-80
2022/10/01 12:41:55;;;;;;;7.32;1.40;;;18.30;99.90;;;;;;5124566;28;20050;-79
2022/10/01 12:44:45;;;;;;;5.97;1.40;;;17.70;99.90;;;;;;5112749;28;20050;-79
2022/10/01 12:47:46;;;;;;;6.85;1.38;;;17.30;99.90;;;;;;5105401;28;20039;-79
2022/10/01 12:50:35;;;;;;;6.30;1.42;;;16.80;99.90;;;;;;5054177;28;20055;-79
2022/10/01 12:53:13;;;;;;;7.00;1.20;;;16.70;99.90;;;;;;5084316;28;20048;-79
2022/10/01 12:55:50;;;;;;;8.20;1.27;;;16.70;99.90;;;;;;5122497;28;20118;-79
2022/10/01 12:58:32;;;;;;;3.58;1.00;;;17.00;99.90;;;;;;5112424;28;20039;-79
2022/10/01 13:01:16;;;;;;;8.88;1.25;;;17.40;99.90;;;;;;5108739;28;20047;-79
2022/10/01 13:03:44;;;;;;;4.95;1.55;;;18.10;99.90;;;;;;5094145;28;20053;-81
2022/10/01 13:06:35;;;;;;;5.15;1.10;;;19.00;99.90;;;;;;5112041;28;20047;-82
2022/10/01 13:09:12;;;;;;;3.05;1.17;;;19.70;99.90;;;;;;5104356;28;20080;-80
2022/10/01 13:12:08;;;;;;;3.70;1.10;;;19.90;99.90;;;;;;5111997;28;20047;-80
2022/10/01 13:14:34;;;;;;;3.13;1.10;;;19.60;99.90;;;;;;5130919;28;20211;-79
2022/10/01 13:17:32;;;;;;;2.55;0.88;;;19.40;99.90;;;;;;5079440;28;20047;-80
2022/10/01 13:20:10;;;;;;;5.40;1.23;;;19.00;99.90;;;;;;5110738;28;20035;-79
2022/10/01 13:22:50;;;;;;;3.72;1.20;;;18.60;99.90;;;;;;5129885;28;20422;-79